sensor_id;sensor_type;location;lat;lon;timestamp;pressure;altitude;pressure_sealevel;temperature;humidity
44825;BME280;30542;47.928;2.138;2023-07-20T00:00:55;100540.31;;;25.57;46.93
44825;BME280;30542;47.928;2.138;2023-07-20T00:05:56;100550.81;;;25.59;47.14
44825;BME280;30542;47.928;2.138;2023-07-20T00:10:56;100538.22;;;25.54;44.77
44825;BME280;30542;47.928;2.138;2023-07-20T00:15:56;100541.31;;;25.47;43.57
44825;BME280;30542;47.928;2.138;2023-07-20T00:20:57;100547.28;;;25.44;44.80
44825;BME280;30542;47.928;2.138;2023-07-20T00:25:59;100539.78;;;25.41;44.71
44825;BME280;30542;47.928;2.138;2023-07-20T00:31:00;100531.78;;;25.36;43.92
44825;BME280;30542;47.928;2.138;2023-07-20T00:36:01;100530.28;;;25.30;43.57
44825;BME280;30542;47.928;2.138;2023-07-20T00:41:01;100530.53;;;25.28;43.44
44825;BME280;30542;47.928;2.138;2023-07-20T00:46:01;100538.41;;;25.25;43.14
44825;BME280;30542;47.928;2.138;2023-07-20T00:51:03;100541.72;;;25.22;43.23
44825;BME280;30542;47.928;2.138;2023-07-20T00:56:04;100533.09;;;25.20;43.11
44825;BME280;30542;47.928;2.138;2023-07-20T01:01:05;100534.50;;;25.17;42.82
44825;BME280;30542;47.928;2.138;2023-07-20T01:06:31;100527.81;;;25.15;42.97
44825;BME280;30542;47.928;2.138;2023-07-20T01:11:43;100536.19;;;25.13;42.68
44825;BME280;30542;47.928;2.138;2023-07-20T01:16:49;100538.91;;;25.08;42.64
44825;BME280;30542;47.928;2.138;2023-07-20T01:27:38;100538.44;;;25.06;42.48
44825;BME280;30542;47.928;2.138;2023-07-20T01:32:47;100536.31;;;25.03;42.15
44825;BME280;30542;47.928;2.138;2023-07-20T01:37:48;100538.50;;;25.01;42.25
44825;BME280;30542;47.928;2.138;2023-07-20T01:42:50;100536.09;;;24.99;42.04
44825;BME280;30542;47.928;2.138;2023-07-20T01:47:51;100525.88;;;24.96;42.15
44825;BME280;30542;47.928;2.138;2023-07-20T01:52:52;100529.69;;;24.95;42.12
44825;BME280;30542;47.928;2.138;2023-07-20T01:57:53;100521.91;;;24.94;41.82
44825;BME280;30542;47.928;2.138;2023-07-20T02:02:53;100513.28;;;24.92;41.89
44825;BME280;30542;47.928;2.138;2023-07-20T02:07:53;100517.09;;;24.91;41.83
44825;BME280;30542;47.928;2.138;2023-07-20T02:12:54;100502.28;;;24.88;41.75
44825;BME280;30542;47.928;2.138;2023-07-20T02:17:54;100502.59;;;24.87;41.76
44825;BME280;30542;47.928;2.138;2023-07-20T02:22:55;100499.91;;;24.87;41.38
44825;BME280;30542;47.928;2.138;2023-07-20T02:27:56;100495.88;;;24.84;41.45
44825;BME280;30542;47.928;2.138;2023-07-20T02:32:56;100497.28;;;24.82;41.41
44825;BME280;30542;47.928;2.138;2023-07-20T02:37:58;100493.78;;;24.81;41.36
44825;BME280;30542;47.928;2.138;2023-07-20T02:42:59;100493.00;;;24.80;41.28
44825;BME280;30542;47.928;2.138;2023-07-20T02:48:00;100485.72;;;24.81;41.22
44825;BME280;30542;47.928;2.138;2023-07-20T02:53:01;100480.59;;;24.79;41.15
44825;BME280;30542;47.928;2.138;2023-07-20T02:58:01;100488.50;;;24.76;41.06
44825;BME280;30542;47.928;2.138;2023-07-20T03:03:02;100489.56;;;24.75;41.00
44825;BME280;30542;47.928;2.138;2023-07-20T03:08:02;100490.66;;;24.74;40.98
44825;BME280;30542;47.928;2.138;2023-07-20T03:13:03;100485.03;;;24.70;40.93
44825;BME280;30542;47.928;2.138;2023-07-20T03:18:03;100483.44;;;24.69;40.88
44825;BME280;30542;47.928;2.138;2023-07-20T03:23:04;100486.44;;;24.68;40.81
44825;BME280;30542;47.928;2.138;2023-07-20T03:28:04;100494.81;;;24.66;40.78
44825;BME280;30542;47.928;2.138;2023-07-20T03:33:04;100494.31;;;24.64;40.62
44825;BME280;30542;47.928;2.138;2023-07-20T03:38:05;100497.28;;;24.63;40.59
44825;BME280;30542;47.928;2.138;2023-07-20T03:43:05;100495.69;;;24.62;40.57
44825;BME280;30542;47.928;2.138;2023-07-20T03:48:06;100500.56;;;24.60;40.68
44825;BME280;30542;47.928;2.138;2023-07-20T03:53:06;100498.94;;;24.59;40.58
44825;BME280;30542;47.928;2.138;2023-07-20T03:58:09;100497.41;;;24.52;40.52
44825;BME280;30542;47.928;2.138;2023-07-20T04:03:10;100506.53;;;24.57;40.41
44825;BME280;30542;47.928;2.138;2023-07-20T04:08:10;100493.72;;;24.48;40.34
44825;BME280;30542;47.928;2.138;2023-07-20T04:13:11;100507.09;;;24.53;40.29
44825;BME280;30542;47.928;2.138;2023-07-20T04:18:12;100498.53;;;24.51;40.28
44825;BME280;30542;47.928;2.138;2023-07-20T04:23:12;100508.47;;;24.51;40.29
44825;BME280;30542;47.928;2.138;2023-07-20T04:28:13;100500.69;;;24.49;40.17
44825;BME280;30542;47.928;2.138;2023-07-20T04:33:13;100502.88;;;24.47;40.32
44825;BME280;30542;47.928;2.138;2023-07-20T04:38:14;100503.94;;;24.46;40.17
44825;BME280;30542;47.928;2.138;2023-07-20T04:43:18;100498.88;;;24.45;40.08
44825;BME280;30542;47.928;2.138;2023-07-20T04:48:18;100504.25;;;24.45;40.06
44825;BME280;30542;47.928;2.138;2023-07-20T04:53:18;100495.69;;;24.43;40.04
44825;BME280;30542;47.928;2.138;2023-07-20T04:58:20;100494.84;;;24.42;40.00
44825;BME280;30542;47.928;2.138;2023-07-20T05:03:20;100482.81;;;24.35;40.00
44825;BME280;30542;47.928;2.138;2023-07-20T05:08:21;100492.75;;;24.39;39.90
44825;BME280;30542;47.928;2.138;2023-07-20T05:13:24;100490.59;;;24.36;40.13
44825;BME280;30542;47.928;2.138;2023-07-20T05:18:25;100492.19;;;24.37;40.18
44825;BME280;30542;47.928;2.138;2023-07-20T05:23:25;100489.00;;;24.35;39.80
44825;BME280;30542;47.928;2.138;2023-07-20T05:28:26;100491.19;;;24.33;39.92
44825;BME280;30542;47.928;2.138;2023-07-20T05:33:27;100486.59;;;24.34;39.86
44825;BME280;30542;47.928;2.138;2023-07-20T05:38:27;100481.50;;;24.32;39.93
44825;BME280;30542;47.928;2.138;2023-07-20T05:43:28;100489.56;;;24.32;39.88
44825;BME280;30542;47.928;2.138;2023-07-20T05:48:28;100495.25;;;24.30;39.96
44825;BME280;30542;47.928;2.138;2023-07-20T05:53:28;100494.44;;;24.30;39.87
44825;BME280;30542;47.928;2.138;2023-07-20T05:58:29;100486.66;;;24.28;39.91
44825;BME280;30542;47.928;2.138;2023-07-20T06:03:29;100495.84;;;24.27;39.90
44825;BME280;30542;47.928;2.138;2023-07-20T06:08:30;100499.31;;;24.28;39.90
44825;BME280;30542;47.928;2.138;2023-07-20T06:13:30;100496.94;;;24.26;40.11
44825;BME280;30542;47.928;2.138;2023-07-20T06:18:31;100508.75;;;24.25;40.02
44825;BME280;30542;47.928;2.138;2023-07-20T06:23:31;100497.19;;;24.25;40.02
44825;BME280;30542;47.928;2.138;2023-07-20T06:28:32;100492.91;;;24.24;40.09
44825;BME280;30542;47.928;2.138;2023-07-20T06:33:32;100489.41;;;24.23;40.16
44825;BME280;30542;47.928;2.138;2023-07-20T06:38:32;100483.25;;;24.23;40.29
44825;BME280;30542;47.928;2.138;2023-07-20T06:43:33;100485.13;;;24.22;40.12
44825;BME280;30542;47.928;2.138;2023-07-20T06:48:33;100478.91;;;24.22;40.30
44825;BME280;30542;47.928;2.138;2023-07-20T06:53:33;100487.00;;;24.22;40.40
44825;BME280;30542;47.928;2.138;2023-07-20T06:58:34;100489.41;;;24.23;40.66
44825;BME280;30542;47.928;2.138;2023-07-20T07:03:35;100475.16;;;24.23;40.45
44825;BME280;30542;47.928;2.138;2023-07-20T07:08:36;100476.22;;;24.22;40.48
44825;BME280;30542;47.928;2.138;2023-07-20T07:13:37;100473.53;;;24.22;40.65
44825;BME280;30542;47.928;2.138;2023-07-20T07:18:37;100474.13;;;24.19;40.67
44825;BME280;30542;47.928;2.138;2023-07-20T07:23:38;100478.13;;;24.21;40.70
44825;BME280;30542;47.928;2.138;2023-07-20T07:28:39;100471.94;;;24.21;40.45
44825;BME280;30542;47.928;2.138;2023-07-20T07:33:39;100473.53;;;24.22;40.84
44825;BME280;30542;47.928;2.138;2023-07-20T07:38:39;100468.97;;;24.22;40.86
44825;BME280;30542;47.928;2.138;2023-07-20T07:43:40;100466.28;;;24.22;40.96
44825;BME280;30542;47.928;2.138;2023-07-20T07:48:40;100472.47;;;24.23;40.83
44825;BME280;30542;47.928;2.138;2023-07-20T07:53:40;100462.28;;;24.20;40.92
44825;BME280;30542;47.928;2.138;2023-07-20T07:58:41;100457.91;;;24.24;40.80
44825;BME280;30542;47.928;2.138;2023-07-20T08:03:41;100456.03;;;24.24;41.18
44825;BME280;30542;47.928;2.138;2023-07-20T08:08:42;100449.84;;;24.24;41.14
44825;BME280;30542;47.928;2.138;2023-07-20T08:13:42;100454.13;;;24.25;41.06
44825;BME280;30542;47.928;2.138;2023-07-20T08:18:43;100451.44;;;24.25;41.18
44825;BME280;30542;47.928;2.138;2023-07-20T08:23:44;100450.34;;;24.26;41.37
44825;BME280;30542;47.928;2.138;2023-07-20T08:28:44;100439.06;;;24.24;41.24
44825;BME280;30542;47.928;2.138;2023-07-20T08:33:46;100437.25;;;24.19;41.15
44825;BME280;30542;47.928;2.138;2023-07-20T08:38:46;100436.88;;;24.26;41.38
44825;BME280;30542;47.928;2.138;2023-07-20T08:43:48;100432.03;;;24.28;41.27
44825;BME280;30542;47.928;2.138;2023-07-20T08:48:49;100422.06;;;24.28;41.51
44825;BME280;30542;47.928;2.138;2023-07-20T08:53:50;100429.81;;;24.30;41.46
44825;BME280;30542;47.928;2.138;2023-07-20T08:58:52;100431.72;;;24.29;41.53
44825;BME280;30542;47.928;2.138;2023-07-20T09:03:53;100425.28;;;24.30;41.56
44825;BME280;30542;47.928;2.138;2023-07-20T09:08:53;100427.13;;;24.30;41.50
44825;BME280;30542;47.928;2.138;2023-07-20T09:14:08;100426.06;;;24.31;41.62
44825;BME280;30542;47.928;2.138;2023-07-20T09:19:09;100418.00;;;24.31;41.41
44825;BME280;30542;47.928;2.138;2023-07-20T09:24:09;100414.19;;;24.32;41.54
44825;BME280;30542;47.928;2.138;2023-07-20T09:29:09;100413.41;;;24.31;41.50
44825;BME280;30542;47.928;2.138;2023-07-20T09:34:10;100403.44;;;24.32;41.67
44825;BME280;30542;47.928;2.138;2023-07-20T09:39:10;100402.34;;;24.33;41.60
44825;BME280;30542;47.928;2.138;2023-07-20T09:44:14;100395.66;;;24.30;41.55
44825;BME280;30542;47.928;2.138;2023-07-20T09:49:14;100391.88;;;24.31;41.54
44825;BME280;30542;47.928;2.138;2023-07-20T09:54:17;100400.44;;;24.34;41.52
44825;BME280;30542;47.928;2.138;2023-07-20T09:59:17;100388.09;;;24.33;41.40
44825;BME280;30542;47.928;2.138;2023-07-20T10:04:18;100385.91;;;24.35;41.38
44825;BME280;30542;47.928;2.138;2023-07-20T10:09:21;100373.31;;;24.30;41.32
44825;BME280;30542;47.928;2.138;2023-07-20T10:14:24;100386.72;;;24.35;41.23
44825;BME280;30542;47.928;2.138;2023-07-20T10:24:45;100374.84;;;24.36;41.22
44825;BME280;30542;47.928;2.138;2023-07-20T10:29:47;100362.19;;;24.37;41.26
44825;BME280;30542;47.928;2.138;2023-07-20T10:34:51;100367.56;;;24.37;41.17
44825;BME280;30542;47.928;2.138;2023-07-20T10:39:55;100362.97;;;24.37;41.19
44825;BME280;30542;47.928;2.138;2023-07-20T10:44:56;100363.81;;;24.38;41.03
44825;BME280;30542;47.928;2.138;2023-07-20T10:49:58;100364.59;;;24.38;40.99
44825;BME280;30542;47.928;2.138;2023-07-20T10:55:10;100361.91;;;24.38;41.04
44825;BME280;30542;47.928;2.138;2023-07-20T11:00:13;100358.16;;;24.39;40.84
44825;BME280;30542;47.928;2.138;2023-07-20T11:05:53;100353.81;;;24.38;41.03
44825;BME280;30542;47.928;2.138;2023-07-20T11:11:29;100350.06;;;24.39;40.84
44825;BME280;30542;47.928;2.138;2023-07-20T11:16:38;100340.88;;;24.40;40.83
44825;BME280;30542;47.928;2.138;2023-07-20T11:21:41;100353.25;;;24.41;40.81
44825;BME280;30542;47.928;2.138;2023-07-20T11:26:54;100338.69;;;24.42;40.76
44825;BME280;30542;47.928;2.138;2023-07-20T11:31:56;100327.91;;;24.42;40.66
44825;BME280;30542;47.928;2.138;2023-07-20T11:36:57;100327.13;;;24.42;40.84
44825;BME280;30542;47.928;2.138;2023-07-20T11:41:57;100319.03;;;24.42;40.62
44825;BME280;30542;47.928;2.138;2023-07-20T11:47:08;100322.53;;;24.42;40.53
44825;BME280;30542;47.928;2.138;2023-07-20T11:52:13;100317.16;;;24.42;40.61
44825;BME280;30542;47.928;2.138;2023-07-20T11:57:16;100310.69;;;24.43;40.53
44825;BME280;30542;47.928;2.138;2023-07-20T12:02:17;100301.81;;;24.43;40.48
44825;BME280;30542;47.928;2.138;2023-07-20T12:07:21;100295.34;;;24.44;40.39
44825;BME280;30542;47.928;2.138;2023-07-20T12:12:21;100300.41;;;24.45;40.34
44825;BME280;30542;47.928;2.138;2023-07-20T12:17:22;100286.16;;;24.45;40.22
44825;BME280;30542;47.928;2.138;2023-07-20T12:22:22;100286.47;;;24.43;40.15
44825;BME280;30542;47.928;2.138;2023-07-20T12:27:27;100273.50;;;24.45;40.12
44825;BME280;30542;47.928;2.138;2023-07-20T12:32:28;100264.63;;;24.45;40.00
44825;BME280;30542;47.928;2.138;2023-07-20T12:37:28;100258.44;;;24.44;39.93
44825;BME280;30542;47.928;2.138;2023-07-20T12:42:28;100249.00;;;24.47;40.00
44825;BME280;30542;47.928;2.138;2023-07-20T12:47:29;100249.78;;;24.47;40.25
44825;BME280;30542;47.928;2.138;2023-07-20T12:52:29;100251.38;;;24.48;40.00
44825;BME280;30542;47.928;2.138;2023-07-20T12:57:29;100246.78;;;24.49;39.97
44825;BME280;30542;47.928;2.138;2023-07-20T13:02:31;100246.78;;;24.49;40.04
44825;BME280;30542;47.928;2.138;2023-07-20T13:07:33;100238.41;;;24.50;39.87
44825;BME280;30542;47.928;2.138;2023-07-20T13:12:35;100237.31;;;24.51;39.86
44825;BME280;30542;47.928;2.138;2023-07-20T13:17:38;100227.63;;;24.50;39.82
44825;BME280;30542;47.928;2.138;2023-07-20T13:22:40;100222.25;;;24.50;39.95
44825;BME280;30542;47.928;2.138;2023-07-20T13:27:40;100217.06;;;24.54;40.56
44825;BME280;30542;47.928;2.138;2023-07-20T13:32:41;100216.56;;;24.52;40.99
44825;BME280;30542;47.928;2.138;2023-07-20T13:37:41;100206.69;;;24.47;41.32
44825;BME280;30542;47.928;2.138;2023-07-20T13:42:42;100204.13;;;24.56;41.48
44825;BME280;30542;47.928;2.138;2023-07-20T13:47:42;100196.44;;;24.63;41.55
44825;BME280;30542;47.928;2.138;2023-07-20T13:52:42;100181.78;;;24.69;41.70
44825;BME280;30542;47.928;2.138;2023-07-20T13:57:43;100180.88;;;24.74;42.10
44825;BME280;30542;47.928;2.138;2023-07-20T14:02:43;100180.78;;;24.79;42.01
44825;BME280;30542;47.928;2.138;2023-07-20T14:07:43;100168.63;;;24.82;42.10
44825;BME280;30542;47.928;2.138;2023-07-20T14:12:44;100164.81;;;24.83;42.22
44825;BME280;30542;47.928;2.138;2023-07-20T14:17:45;100169.91;;;24.84;42.39
44825;BME280;30542;47.928;2.138;2023-07-20T14:22:45;100158.03;;;24.85;42.76
44825;BME280;30542;47.928;2.138;2023-07-20T14:27:46;100157.72;;;24.87;42.47
44825;BME280;30542;47.928;2.138;2023-07-20T14:32:46;100150.44;;;24.87;42.67
44825;BME280;30542;47.928;2.138;2023-07-20T14:37:46;100152.53;;;24.90;42.71
44825;BME280;30542;47.928;2.138;2023-07-20T14:42:47;100140.66;;;24.91;42.87
44825;BME280;30542;47.928;2.138;2023-07-20T14:47:47;100136.59;;;24.94;42.86
44825;BME280;30542;47.928;2.138;2023-07-20T14:52:53;100134.69;;;24.94;42.86
44825;BME280;30542;47.928;2.138;2023-07-20T14:57:54;100130.88;;;24.95;43.01
44825;BME280;30542;47.928;2.138;2023-07-20T15:02:55;100134.09;;;24.97;42.94
44825;BME280;30542;47.928;2.138;2023-07-20T15:07:56;100138.69;;;24.97;43.29
44825;BME280;30542;47.928;2.138;2023-07-20T15:12:56;100127.28;;;25.00;43.44
44825;BME280;30542;47.928;2.138;2023-07-20T15:17:56;100129.69;;;25.01;43.33
44825;BME280;30542;47.928;2.138;2023-07-20T15:22:57;100121.59;;;25.01;43.33
44825;BME280;30542;47.928;2.138;2023-07-20T15:27:57;100117.19;;;25.05;43.72
44825;BME280;30542;47.928;2.138;2023-07-20T15:32:57;100106.09;;;25.07;43.28
44825;BME280;30542;47.928;2.138;2023-07-20T15:37:58;100113.09;;;25.08;43.50
44825;BME280;30542;47.928;2.138;2023-07-20T15:42:59;100105.81;;;25.09;43.39
44825;BME280;30542;47.928;2.138;2023-07-20T15:48:00;100100.16;;;25.10;43.52
44825;BME280;30542;47.928;2.138;2023-07-20T15:53:00;100096.34;;;25.11;43.55
44825;BME280;30542;47.928;2.138;2023-07-20T15:58:00;100094.94;;;25.14;43.64
44825;BME280;30542;47.928;2.138;2023-07-20T16:03:02;100085.44;;;25.16;43.74
44825;BME280;30542;47.928;2.138;2023-07-20T16:08:03;100083.06;;;25.15;43.79
44825;BME280;30542;47.928;2.138;2023-07-20T16:13:04;100074.38;;;25.18;43.80
44825;BME280;30542;47.928;2.138;2023-07-20T16:18:05;100070.56;;;25.19;44.24
44825;BME280;30542;47.928;2.138;2023-07-20T16:23:05;100065.66;;;25.21;43.86
44825;BME280;30542;47.928;2.138;2023-07-20T16:28:05;100057.28;;;25.22;43.95
44825;BME280;30542;47.928;2.138;2023-07-20T16:33:06;100048.41;;;25.22;42.14
44825;BME280;30542;47.928;2.138;2023-07-20T16:38:07;100050.28;;;25.21;41.21
44825;BME280;30542;47.928;2.138;2023-07-20T16:43:07;100052.19;;;25.21;41.03
44825;BME280;30542;47.928;2.138;2023-07-20T16:48:08;100045.72;;;25.22;41.29
44825;BME280;30542;47.928;2.138;2023-07-20T16:53:09;100043.31;;;25.20;40.87
44825;BME280;30542;47.928;2.138;2023-07-20T16:58:09;100047.44;;;25.18;40.87
44825;BME280;30542;47.928;2.138;2023-07-20T17:03:10;100049.63;;;25.16;40.69
44825;BME280;30542;47.928;2.138;2023-07-20T17:08:10;100050.72;;;25.15;40.79
44825;BME280;30542;47.928;2.138;2023-07-20T17:13:11;100054.22;;;25.15;40.79
44825;BME280;30542;47.928;2.138;2023-07-20T17:18:14;100050.72;;;25.15;40.84
44825;BME280;30542;47.928;2.138;2023-07-20T17:23:15;100039.16;;;25.14;40.78
44825;BME280;30542;47.928;2.138;2023-07-20T17:28:16;100035.66;;;25.14;40.69
44825;BME280;30542;47.928;2.138;2023-07-20T17:33:17;100031.66;;;25.11;40.23
44825;BME280;30542;47.928;2.138;2023-07-20T17:38:17;100037.38;;;25.10;40.33
44825;BME280;30542;47.928;2.138;2023-07-20T17:43:18;100031.19;;;25.09;40.72
44825;BME280;30542;47.928;2.138;2023-07-20T17:48:19;100029.75;;;25.12;40.93
44825;BME280;30542;47.928;2.138;2023-07-20T17:53:19;100038.03;;;25.15;41.24
44825;BME280;30542;47.928;2.138;2023-07-20T17:58:20;100029.94;;;25.15;41.51
44825;BME280;30542;47.928;2.138;2023-07-20T18:03:20;100042.03;;;25.18;41.48
44825;BME280;30542;47.928;2.138;2023-07-20T18:08:20;100030.63;;;25.21;41.82
44825;BME280;30542;47.928;2.138;2023-07-20T18:13:21;100028.44;;;25.23;42.10
44825;BME280;30542;47.928;2.138;2023-07-20T18:18:21;100030.03;;;25.24;42.36
44825;BME280;30542;47.928;2.138;2023-07-20T18:23:22;100037.00;;;25.25;42.37
44825;BME280;30542;47.928;2.138;2023-07-20T18:28:22;100041.78;;;25.28;42.63
44825;BME280;30542;47.928;2.138;2023-07-20T18:33:23;100032.59;;;25.29;42.79
44825;BME280;30542;47.928;2.138;2023-07-20T18:38:23;100037.38;;;25.32;43.01
44825;BME280;30542;47.928;2.138;2023-07-20T18:43:23;100038.97;;;25.33;42.94
44825;BME280;30542;47.928;2.138;2023-07-20T18:48:23;100025.97;;;25.35;43.00
44825;BME280;30542;47.928;2.138;2023-07-20T18:53:24;100037.25;;;25.37;43.22
44825;BME280;30542;47.928;2.138;2023-07-20T18:58:24;100023.75;;;25.37;43.41
44825;BME280;30542;47.928;2.138;2023-07-20T19:03:24;100033.47;;;25.38;43.58
44825;BME280;30542;47.928;2.138;2023-07-20T19:08:26;100041.56;;;25.38;43.51
44825;BME280;30542;47.928;2.138;2023-07-20T19:13:26;100034.72;;;25.41;43.53
44825;BME280;30542;47.928;2.138;2023-07-20T19:18:26;100036.63;;;25.40;43.56
44825;BME280;30542;47.928;2.138;2023-07-20T19:23:27;100035.84;;;25.40;43.83
44825;BME280;30542;47.928;2.138;2023-07-20T19:28:27;100036.03;;;25.43;43.99
44825;BME280;30542;47.928;2.138;2023-07-20T19:33:27;100043.00;;;25.44;44.18
44825;BME280;30542;47.928;2.138;2023-07-20T19:38:28;100046.22;;;25.46;44.44
44825;BME280;30542;47.928;2.138;2023-07-20T19:43:28;100050.78;;;25.46;44.62
44825;BME280;30542;47.928;2.138;2023-07-20T19:48:29;100057.47;;;25.48;44.89
44825;BME280;30542;47.928;2.138;2023-07-20T19:53:29;100062.88;;;25.48;45.21
44825;BME280;30542;47.928;2.138;2023-07-20T19:58:30;100062.53;;;25.50;45.43
44825;BME280;30542;47.928;2.138;2023-07-20T20:03:30;100066.84;;;25.51;45.48
44825;BME280;30542;47.928;2.138;2023-07-20T20:08:31;100078.44;;;25.51;45.66
44825;BME280;30542;47.928;2.138;2023-07-20T20:13:32;100073.84;;;25.52;45.84
44825;BME280;30542;47.928;2.138;2023-07-20T20:18:32;100079.72;;;25.54;45.54
44825;BME280;30542;47.928;2.138;2023-07-20T20:23:33;100083.19;;;25.54;45.53
44825;BME280;30542;47.928;2.138;2023-07-20T20:28:33;100091.28;;;25.54;45.59
44825;BME280;30542;47.928;2.138;2023-07-20T20:33:34;100085.09;;;25.54;45.65
44825;BME280;30542;47.928;2.138;2023-07-20T20:38:35;100085.09;;;25.54;45.56
44825;BME280;30542;47.928;2.138;2023-07-20T20:43:35;100087.78;;;25.54;45.76
44825;BME280;30542;47.928;2.138;2023-07-20T20:48:37;100089.41;;;25.55;45.58
44825;BME280;30542;47.928;2.138;2023-07-20T20:53:39;100091.78;;;25.57;45.87
44825;BME280;30542;47.928;2.138;2023-07-20T20:58:40;100089.56;;;25.59;45.89
44825;BME280;30542;47.928;2.138;2023-07-20T21:03:44;100092.78;;;25.61;45.77
44825;BME280;30542;47.928;2.138;2023-07-20T21:08:44;100088.97;;;25.62;46.06
44825;BME280;30542;47.928;2.138;2023-07-20T21:13:45;100087.06;;;25.62;45.98
44825;BME280;30542;47.928;2.138;2023-07-20T21:18:45;100085.97;;;25.63;46.44
44825;BME280;30542;47.928;2.138;2023-07-20T21:23:45;100094.06;;;25.63;46.47
44825;BME280;30542;47.928;2.138;2023-07-20T21:28:46;100087.56;;;25.64;46.36
44825;BME280;30542;47.928;2.138;2023-07-20T21:33:46;100084.56;;;25.66;46.85
44825;BME280;30542;47.928;2.138;2023-07-20T21:38:46;100091.06;;;25.65;46.75
44825;BME280;30542;47.928;2.138;2023-07-20T21:43:47;100093.44;;;25.66;47.17
44825;BME280;30542;47.928;2.138;2023-07-20T21:48:47;100091.53;;;25.67;47.11
44825;BME280;30542;47.928;2.138;2023-07-20T21:53:47;100090.44;;;25.68;47.30
44825;BME280;30542;47.928;2.138;2023-07-20T21:58:48;100090.13;;;25.69;47.44
44825;BME280;30542;47.928;2.138;2023-07-20T22:03:48;100092.03;;;25.69;47.55
44825;BME280;30542;47.928;2.138;2023-07-20T22:08:48;100096.63;;;25.68;47.37
44825;BME280;30542;47.928;2.138;2023-07-20T22:13:49;100092.34;;;25.67;47.61
44825;BME280;30542;47.928;2.138;2023-07-20T22:18:49;100075.06;;;25.68;47.33
44825;BME280;30542;47.928;2.138;2023-07-20T22:23:50;100079.34;;;25.69;47.28
44825;BME280;30542;47.928;2.138;2023-07-20T22:28:50;100085.06;;;25.68;47.30
44825;BME280;30542;47.928;2.138;2023-07-20T22:33:50;100070.78;;;25.67;47.50
44825;BME280;30542;47.928;2.138;2023-07-20T22:38:53;100066.16;;;25.68;47.35
44825;BME280;30542;47.928;2.138;2023-07-20T22:43:54;100075.53;;;25.70;47.34
44825;BME280;30542;47.928;2.138;2023-07-20T22:48:54;100077.44;;;25.70;47.25
44825;BME280;30542;47.928;2.138;2023-07-20T22:53:55;100084.72;;;25.69;47.41
44825;BME280;30542;47.928;2.138;2023-07-20T22:58:55;100085.06;;;25.68;47.51
44825;BME280;30542;47.928;2.138;2023-07-20T23:03:55;100081.25;;;25.69;47.83
44825;BME280;30542;47.928;2.138;2023-07-20T23:08:57;100081.56;;;25.67;48.01
44825;BME280;30542;47.928;2.138;2023-07-20T23:13:58;100077.75;;;25.68;47.97
44825;BME280;30542;47.928;2.138;2023-07-20T23:18:58;100075.84;;;25.69;48.12
44825;BME280;30542;47.928;2.138;2023-07-20T23:23:59;100080.75;;;25.67;48.37
44825;BME280;30542;47.928;2.138;2023-07-20T23:28:59;100068.38;;;25.66;48.47
44825;BME280;30542;47.928;2.138;2023-07-20T23:33:59;100068.38;;;25.66;48.51
44825;BME280;30542;47.928;2.138;2023-07-20T23:39:00;100066.78;;;25.65;48.61
44825;BME280;30542;47.928;2.138;2023-07-20T23:44:00;100073.75;;;25.66;48.88
44825;BME280;30542;47.928;2.138;2023-07-20T23:49:01;100065.38;;;25.67;49.03
44825;BME280;30542;47.928;2.138;2023-07-20T23:54:01;100071.56;;;25.68;48.89
44825;BME280;30542;47.928;2.138;2023-07-20T23:59:02;100075.53;;;25.70;48.79
